createdAt,value
2022-11-09T00:01:02.342Z,34.75
2022-11-09T00:03:31.830Z,38.50
2022-11-09T00:06:00.746Z,32.25
2022-11-09T00:08:29.027Z,36.00
2022-11-09T00:10:57.223Z,31.50
2022-11-09T00:13:25.438Z,32.50
2022-11-09T00:15:53.554Z,37.50
2022-11-09T00:18:21.616Z,38.75
2022-11-09T00:20:51.036Z,39.00
2022-11-09T00:23:19.355Z,39.50
2022-11-09T00:25:48.000Z,37.75
2022-11-09T00:28:16.315Z,36.25
2022-11-09T00:30:44.345Z,13.25
2022-11-09T00:33:12.502Z,32.25
2022-11-09T00:35:44.575Z,25.25
2022-11-09T00:38:14.019Z,33.25
2022-11-09T00:40:42.035Z,33.00
2022-11-09T00:43:10.129Z,35.25
2022-11-09T00:45:38.181Z,31.25
2022-11-09T00:48:06.239Z,30.75
2022-11-09T00:50:34.663Z,29.00
2022-11-09T00:53:02.769Z,34.25
2022-11-09T00:55:32.623Z,31.25
2022-11-09T00:58:00.856Z,32.00
2022-11-09T01:00:29.069Z,34.75
2022-11-09T01:02:57.107Z,24.75
2022-11-09T01:05:26.551Z,29.50
2022-11-09T01:07:54.595Z,29.00
2022-11-09T01:10:24.170Z,32.50
2022-11-09T01:12:56.392Z,27.00
2022-11-09T01:15:24.498Z,30.50
2022-11-09T01:17:52.797Z,27.75
2022-11-09T01:20:20.934Z,26.25
2022-11-09T01:22:49.006Z,35.75
2022-11-09T01:25:17.138Z,33.75
2022-11-09T01:27:45.294Z,33.75
2022-11-09T01:30:15.395Z,33.00
2022-11-09T01:32:43.437Z,32.00
2022-11-09T01:35:11.486Z,30.50
2022-11-09T01:37:39.531Z,30.00
2022-11-09T01:40:10.932Z,28.25
2022-11-09T01:42:41.354Z,26.50
2022-11-09T01:45:24.925Z,23.00
2022-11-09T01:47:55.916Z,25.00
2022-11-09T01:50:28.508Z,27.25
2022-11-09T01:52:56.574Z,30.50
2022-11-09T01:55:25.513Z,31.75
2022-11-09T01:57:57.076Z,25.00
2022-11-09T02:00:26.532Z,27.75
2022-11-09T02:02:57.152Z,27.75
2022-11-09T02:05:28.054Z,25.50
2022-11-09T02:07:57.734Z,30.25
2022-11-09T02:10:29.085Z,31.75
2022-11-09T02:13:00.257Z,29.00
2022-11-09T02:15:30.125Z,32.25
2022-11-09T02:17:58.422Z,32.00
2022-11-09T02:20:29.258Z,32.50
2022-11-09T02:22:59.975Z,33.75
2022-11-09T02:25:28.791Z,29.00
2022-11-09T02:27:56.952Z,35.00
2022-11-09T02:30:25.177Z,29.50
2022-11-09T02:32:53.798Z,37.00
2022-11-09T02:35:21.913Z,38.50
2022-11-09T02:37:51.829Z,32.75
2022-11-09T02:40:22.480Z,38.00
2022-11-09T02:42:50.702Z,28.25
2022-11-09T02:45:18.988Z,36.00
2022-11-09T02:47:47.102Z,35.00
2022-11-09T02:50:15.156Z,27.50
2022-11-09T02:52:43.814Z,40.75
2022-11-09T02:55:13.850Z,34.50
2022-11-09T02:57:42.158Z,36.75
2022-11-09T03:00:12.732Z,37.00
2022-11-09T03:02:40.934Z,33.25
2022-11-09T03:05:09.509Z,33.50
2022-11-09T03:07:40.823Z,33.50
2022-11-09T03:10:09.155Z,26.75
2022-11-09T03:12:39.707Z,33.50
2022-11-09T03:15:12.026Z,41.00
2022-11-09T03:17:44.195Z,35.00
2022-11-09T03:20:13.331Z,36.50
2022-11-09T03:22:42.776Z,30.50
2022-11-09T03:25:11.334Z,31.00
2022-11-09T03:27:42.537Z,37.25
2022-11-09T03:30:11.282Z,36.25
2022-11-09T03:32:40.290Z,37.00
2022-11-09T03:35:09.595Z,31.50
2022-11-09T03:37:38.134Z,30.75
2022-11-09T03:40:07.094Z,29.25
2022-11-09T03:42:35.517Z,36.75
2022-11-09T03:45:05.271Z,28.25
2022-11-09T03:47:33.284Z,35.25
2022-11-09T03:50:01.304Z,33.50
2022-11-09T03:52:29.342Z,38.50
2022-11-09T03:54:57.364Z,27.75
2022-11-09T03:57:25.462Z,27.50
2022-11-09T03:59:53.615Z,38.75
2022-11-09T04:02:23.127Z,33.67
2022-11-09T04:04:51.320Z,36.50
2022-11-09T04:07:19.480Z,30.00
2022-11-09T04:09:47.593Z,32.25
2022-11-09T04:12:15.690Z,31.00
2022-11-09T04:14:43.746Z,33.75
2022-11-09T04:17:11.803Z,27.50
2022-11-09T04:19:41.267Z,35.25
2022-11-09T04:22:09.274Z,28.25
2022-11-09T04:24:37.719Z,24.25
2022-11-09T04:27:06.096Z,24.50
2022-11-09T04:29:34.203Z,28.25
2022-11-09T04:32:02.282Z,21.50
2022-11-09T04:34:30.331Z,23.00
2022-11-09T04:36:59.758Z,26.00
2022-11-09T04:39:27.799Z,26.75
2022-11-09T04:41:55.813Z,25.75
2022-11-09T04:44:23.892Z,28.75
2022-11-09T04:46:51.970Z,31.25
2022-11-09T04:49:19.997Z,29.25
2022-11-09T04:51:48.158Z,34.50
2022-11-09T04:54:17.688Z,26.00
2022-11-09T04:56:45.803Z,28.50
2022-11-09T04:59:13.834Z,27.00
2022-11-09T05:01:41.871Z,36.00
2022-11-09T05:04:09.996Z,33.75
2022-11-09T05:06:38.129Z,35.75
2022-11-09T05:09:06.848Z,23.25
2022-11-09T05:11:36.677Z,30.75
2022-11-09T05:14:05.075Z,32.00
2022-11-09T05:16:33.110Z,32.25
2022-11-09T05:19:01.189Z,29.75
2022-11-09T05:21:29.380Z,26.75
2022-11-09T05:23:59.385Z,22.50
2022-11-09T05:26:31.431Z,23.25
2022-11-09T05:29:01.487Z,25.50
2022-11-09T05:31:29.987Z,27.75
2022-11-09T05:33:58.147Z,26.50
2022-11-09T05:36:27.884Z,27.00
2022-11-09T05:38:55.992Z,21.50
2022-11-09T05:41:24.151Z,27.75
2022-11-09T05:43:52.207Z,30.00
2022-11-09T05:46:21.676Z,22.00
2022-11-09T05:48:49.705Z,29.25
2022-11-09T05:51:17.930Z,30.00
2022-11-09T05:53:46.943Z,28.75
2022-11-09T05:56:17.411Z,31.75
2022-11-09T05:58:45.467Z,29.50
2022-11-09T06:01:14.598Z,27.50
2022-11-09T06:03:44.552Z,26.75
2022-11-09T06:06:13.741Z,33.00
2022-11-09T06:08:41.899Z,33.00
2022-11-09T06:11:11.375Z,36.50
2022-11-09T06:13:39.650Z,35.50
2022-11-09T06:16:08.032Z,31.00
2022-11-09T06:18:37.292Z,35.50
2022-11-09T06:21:07.268Z,31.25
2022-11-09T06:23:35.312Z,35.25
2022-11-09T06:26:06.560Z,36.50
2022-11-09T06:28:34.825Z,35.25
2022-11-09T06:31:04.036Z,37.25
2022-11-09T06:33:32.890Z,37.00
2022-11-09T06:36:01.635Z,24.75
2022-11-09T06:38:31.096Z,32.25
2022-11-09T06:41:00.408Z,30.00
2022-11-09T06:43:29.160Z,34.25
2022-11-09T06:45:57.310Z,26.75
2022-11-09T06:48:25.893Z,26.00
2022-11-09T06:50:53.935Z,25.25
2022-11-09T06:53:22.382Z,25.75
2022-11-09T06:55:52.057Z,29.00
2022-11-09T06:58:20.899Z,27.75
2022-11-09T07:00:49.015Z,28.75
2022-11-09T07:03:18.413Z,31.25
2022-11-09T07:05:47.218Z,27.50
2022-11-09T07:08:15.633Z,31.00
2022-11-09T07:10:43.769Z,28.25
2022-11-09T07:13:15.031Z,31.00
2022-11-09T07:15:43.105Z,29.25
2022-11-09T07:18:12.397Z,33.00
2022-11-09T07:20:40.879Z,27.00
2022-11-09T07:23:09.013Z,24.50
2022-11-09T07:25:37.397Z,29.75
2022-11-09T07:28:06.297Z,27.75
2022-11-09T07:30:36.673Z,34.00
2022-11-09T07:33:20.860Z,28.50
2022-11-09T07:35:49.100Z,29.00
2022-11-09T07:38:17.474Z,31.00
2022-11-09T07:40:45.726Z,26.50
2022-11-09T07:43:13.914Z,31.75
2022-11-09T07:45:45.081Z,30.75
2022-11-09T07:48:13.429Z,29.00
2022-11-09T07:50:41.811Z,33.00
2022-11-09T07:53:11.931Z,33.25
2022-11-09T07:55:40.357Z,37.00
2022-11-09T07:58:09.210Z,36.75
2022-11-09T08:00:37.980Z,29.50
2022-11-09T08:03:07.909Z,28.00
2022-11-09T08:05:36.276Z,29.00
2022-11-09T08:08:06.015Z,26.00
2022-11-09T08:10:35.440Z,35.00
2022-11-09T08:13:04.458Z,25.25
2022-11-09T08:15:32.619Z,30.50
2022-11-09T08:18:01.349Z,22.00
2022-11-09T08:20:31.214Z,16.50
2022-11-09T08:23:03.617Z,18.50
2022-11-09T08:25:32.670Z,26.25
2022-11-09T08:28:00.804Z,25.25
2022-11-09T08:30:28.943Z,17.00
2022-11-09T08:32:57.121Z,26.50
2022-11-09T08:35:25.578Z,22.75
2022-11-09T08:37:55.253Z,29.25
2022-11-09T08:40:26.012Z,18.00
2022-11-09T08:42:54.776Z,21.00
2022-11-09T08:45:23.121Z,25.50
2022-11-09T08:47:58.217Z,27.75
2022-11-09T08:50:26.529Z,24.50
2022-11-09T08:52:56.012Z,23.25
2022-11-09T08:55:24.623Z,21.75
2022-11-09T08:57:54.531Z,25.00
2022-11-09T09:00:22.640Z,24.00
2022-11-09T09:02:50.838Z,24.75
2022-11-09T09:05:19.353Z,25.25
2022-11-09T09:07:47.518Z,28.50
2022-11-09T09:10:17.054Z,25.00
2022-11-09T09:12:45.176Z,21.75
2022-11-09T09:15:13.475Z,23.25
2022-11-09T09:17:42.655Z,23.25
2022-11-09T09:20:12.687Z,26.50
2022-11-09T09:22:41.257Z,28.25
2022-11-09T09:25:09.942Z,20.50
2022-11-09T09:27:39.503Z,23.75
2022-11-09T09:30:08.251Z,33.50
2022-11-09T09:32:36.384Z,37.50
2022-11-09T09:35:04.617Z,32.25
2022-11-09T09:37:32.808Z,37.00
2022-11-09T09:40:00.964Z,33.50
2022-11-09T09:42:31.792Z,36.25
2022-11-09T09:45:04.178Z,33.25
2022-11-09T09:47:40.221Z,34.25
2022-11-09T09:50:11.775Z,33.75
2022-11-09T09:52:50.595Z,36.00
2022-11-09T09:55:25.712Z,30.00
2022-11-09T09:57:55.452Z,25.00
2022-11-09T10:00:26.381Z,28.50
2022-11-09T10:02:54.955Z,23.00
2022-11-09T10:05:28.377Z,26.25
2022-11-09T10:08:04.054Z,30.25
2022-11-09T10:10:50.300Z,22.75
2022-11-09T10:13:33.216Z,9.25
2022-11-09T10:16:08.059Z,23.75
2022-11-09T10:18:40.938Z,23.25
2022-11-09T10:21:24.482Z,21.25
2022-11-09T10:24:00.606Z,21.50
2022-11-09T10:26:34.776Z,19.00
2022-11-09T10:29:15.936Z,24.00
2022-11-09T10:31:47.927Z,20.25
2022-11-09T10:34:19.111Z,20.25
2022-11-09T10:36:51.413Z,22.00
2022-11-09T10:39:20.038Z,26.00
2022-11-09T10:42:06.764Z,24.00
2022-11-09T10:44:53.687Z,31.25
2022-11-09T10:47:50.245Z,37.50
2022-11-09T10:50:39.065Z,45.00
2022-11-09T10:53:26.142Z,35.50
2022-11-09T10:56:20.271Z,29.00
2022-11-09T10:59:22.881Z,22.25
2022-11-09T11:02:29.088Z,27.75
2022-11-09T11:05:24.873Z,28.00
2022-11-09T11:08:26.664Z,28.50
2022-11-09T11:11:33.627Z,31.00
2022-11-09T11:14:23.632Z,24.75
2022-11-09T11:17:21.957Z,30.50
2022-11-09T11:20:23.446Z,30.00
2022-11-09T11:23:17.264Z,30.25
2022-11-09T11:26:19.055Z,25.25
2022-11-09T11:29:08.280Z,29.00
2022-11-09T11:31:55.265Z,32.75
2022-11-09T11:34:59.201Z,27.50
2022-11-09T11:37:52.152Z,41.00
2022-11-09T11:40:44.225Z,39.75
2022-11-09T11:43:36.776Z,30.75
2022-11-09T11:46:25.650Z,32.75
2022-11-09T11:49:32.499Z,28.00
2022-11-09T11:52:24.497Z,40.25
2022-11-09T11:55:26.537Z,42.80
2022-11-09T11:58:21.822Z,38.50
2022-11-09T12:01:28.640Z,37.00
2022-11-09T12:04:30.993Z,36.00
2022-11-09T12:07:25.698Z,37.00
2022-11-09T12:10:22.545Z,37.00
2022-11-09T12:13:15.285Z,20.50
2022-11-09T12:16:07.746Z,33.00
2022-11-09T12:19:03.788Z,28.25
2022-11-09T12:21:56.911Z,29.75
2022-11-09T12:24:50.310Z,28.00
2022-11-09T12:27:44.216Z,27.75
2022-11-09T12:30:37.646Z,30.25
2022-11-09T12:33:33.680Z,30.00
2022-11-09T12:36:23.995Z,31.25
2022-11-09T12:39:14.326Z,31.00
2022-11-09T12:42:03.352Z,30.25
2022-11-09T12:44:56.890Z,32.50
2022-11-09T12:47:45.627Z,24.50
2022-11-09T12:50:34.611Z,26.00
2022-11-09T12:53:23.776Z,26.75
2022-11-09T12:56:12.634Z,25.50
2022-11-09T12:59:13.947Z,26.00
2022-11-09T13:02:02.097Z,31.50
2022-11-09T13:04:55.776Z,29.25
2022-11-09T13:07:52.622Z,27.75
2022-11-09T13:10:40.312Z,35.00
2022-11-09T13:13:26.823Z,27.25
2022-11-09T13:16:32.425Z,28.25
2022-11-09T13:19:33.686Z,21.50
2022-11-09T13:22:35.070Z,29.75
2022-11-09T13:25:47.356Z,26.50
2022-11-09T13:28:44.141Z,32.50
2022-11-09T13:32:03.432Z,30.25
2022-11-09T13:34:51.266Z,30.00
2022-11-09T13:37:49.551Z,22.00
2022-11-09T13:40:50.112Z,29.00
2022-11-09T13:43:37.868Z,24.25
2022-11-09T13:46:25.663Z,22.00
2022-11-09T13:49:26.743Z,26.00
2022-11-09T13:52:31.427Z,23.00
2022-11-09T13:55:19.957Z,21.00
2022-11-09T13:58:12.416Z,30.25
2022-11-09T14:00:59.054Z,29.25
2022-11-09T14:03:51.623Z,27.00
2022-11-09T14:06:38.713Z,26.25
2022-11-09T14:09:25.891Z,29.50
2022-11-09T14:12:23.723Z,27.75
2022-11-09T14:15:30.940Z,24.75
2022-11-09T14:18:23.535Z,23.50
2022-11-09T14:21:16.585Z,29.25
2022-11-09T14:24:03.898Z,27.00
2022-11-09T14:27:14.661Z,23.50
2022-11-09T14:30:02.796Z,27.75
2022-11-09T14:32:52.149Z,33.25
2022-11-09T14:35:40.283Z,27.00
2022-11-09T14:38:29.214Z,31.50
2022-11-09T14:41:20.254Z,29.75
2022-11-09T14:44:07.296Z,35.00
2022-11-09T14:46:54.823Z,29.25
2022-11-09T14:49:42.674Z,29.50
2022-11-09T14:52:30.017Z,32.50
2022-11-09T14:55:19.121Z,31.75
2022-11-09T14:58:06.045Z,22.75
2022-11-09T15:01:09.290Z,37.00
2022-11-09T15:04:11.182Z,28.25
2022-11-09T15:07:02.587Z,27.75
2022-11-09T15:09:51.018Z,21.50
2022-11-09T15:12:41.232Z,31.25
2022-11-09T15:15:31.302Z,23.33
2022-11-09T15:18:19.742Z,26.50
2022-11-09T15:21:17.589Z,22.00
2022-11-09T15:24:06.735Z,17.75
2022-11-09T15:26:54.157Z,26.00
2022-11-09T15:29:41.959Z,24.25
2022-11-09T15:32:28.946Z,26.25
2022-11-09T15:35:20.171Z,27.00
2022-11-09T15:38:06.904Z,33.00
2022-11-09T15:40:54.589Z,26.00
2022-11-09T15:43:41.095Z,31.25
2022-11-09T15:46:28.821Z,30.50
2022-11-09T15:49:17.597Z,33.25
2022-11-09T15:52:04.447Z,30.50
2022-11-09T15:54:51.518Z,27.50
2022-11-09T15:57:39.579Z,33.75
2022-11-09T16:00:26.265Z,27.75
2022-11-09T16:03:13.133Z,28.00
2022-11-09T16:05:59.900Z,34.25
2022-11-09T16:08:48.104Z,33.00
2022-11-09T16:11:34.855Z,27.75
2022-11-09T16:14:23.090Z,29.00
2022-11-09T16:17:09.933Z,27.50
2022-11-09T16:19:56.604Z,27.50
2022-11-09T16:22:43.510Z,30.25
2022-11-09T16:25:30.458Z,27.75
2022-11-09T16:28:19.064Z,18.25
2022-11-09T16:31:07.907Z,28.00
2022-11-09T16:33:54.535Z,18.50
2022-11-09T16:36:47.919Z,29.00
2022-11-09T16:39:38.009Z,28.25
2022-11-09T16:42:24.764Z,25.00
2022-11-09T16:45:14.337Z,27.50
2022-11-09T16:48:04.103Z,30.50
2022-11-09T16:50:53.495Z,28.50
2022-11-09T16:53:40.073Z,30.25
2022-11-09T16:56:26.868Z,25.50
2022-11-09T16:59:14.456Z,22.00
2022-11-09T17:02:01.308Z,28.25
2022-11-09T17:04:49.443Z,26.00
2022-11-09T17:07:42.567Z,26.75
2022-11-09T17:10:29.860Z,22.75
2022-11-09T17:13:16.918Z,25.75
2022-11-09T17:16:04.879Z,20.75
2022-11-09T17:18:53.439Z,25.25
2022-11-09T17:21:41.730Z,27.50
2022-11-09T17:24:28.657Z,27.00
2022-11-09T17:27:15.081Z,29.50
2022-11-09T17:30:01.628Z,27.75
2022-11-09T17:32:48.773Z,23.25
2022-11-09T17:35:36.877Z,20.75
2022-11-09T17:38:24.911Z,20.75
2022-11-09T17:41:12.887Z,26.00
2022-11-09T17:44:01.573Z,27.50
2022-11-09T17:46:48.838Z,21.75
2022-11-09T17:49:35.410Z,27.25
2022-11-09T17:52:22.294Z,25.00
2022-11-09T17:55:10.162Z,25.00
2022-11-09T17:57:57.086Z,32.00
2022-11-09T18:00:43.814Z,22.75
2022-11-09T18:03:32.806Z,30.50
2022-11-09T18:06:20.702Z,17.75
2022-11-09T18:12:16.588Z,23.50
2022-11-09T18:15:03.613Z,28.75
2022-11-09T18:17:50.663Z,20.50
2022-11-09T18:20:39.124Z,28.25
2022-11-09T18:23:25.712Z,24.75
2022-11-09T18:26:12.804Z,29.00
2022-11-09T18:29:00.464Z,23.50
2022-11-09T18:31:47.119Z,25.75
2022-11-09T18:34:33.433Z,22.75
2022-11-09T18:37:20.924Z,24.50
2022-11-09T18:40:08.023Z,24.75
2022-11-09T18:42:55.064Z,27.00
2022-11-09T18:45:42.884Z,27.00
2022-11-09T18:48:29.857Z,17.25
2022-11-09T18:51:16.611Z,26.50
2022-11-09T18:54:03.615Z,30.00
2022-11-09T18:56:52.163Z,26.50
2022-11-09T18:59:40.967Z,23.00
2022-11-09T19:02:29.165Z,22.50
2022-11-09T19:05:16.094Z,25.00
2022-11-09T19:08:02.630Z,24.00
2022-11-09T19:10:49.197Z,26.50
2022-11-09T19:13:35.979Z,20.75
2022-11-09T19:16:23.451Z,24.00
2022-11-09T19:19:12.692Z,18.75
2022-11-09T19:21:59.816Z,18.25
2022-11-09T19:24:47.086Z,26.50
2022-11-09T19:27:34.020Z,27.00
2022-11-09T19:30:25.717Z,22.75
2022-11-09T19:33:12.667Z,23.75
2022-11-09T19:36:28.475Z,25.00
2022-11-09T19:39:07.520Z,26.50
2022-11-09T19:41:53.770Z,19.50
2022-11-09T19:44:40.058Z,15.50
2022-11-09T19:47:28.645Z,19.00
2022-11-09T19:50:15.434Z,18.50
2022-11-09T19:53:03.612Z,18.25
2022-11-09T19:55:50.554Z,21.00
2022-11-09T19:58:37.730Z,20.00
2022-11-09T20:01:24.692Z,24.50
2022-11-09T20:04:15.097Z,21.75
2022-11-09T20:07:01.785Z,22.00
2022-11-09T20:09:50.148Z,19.75
2022-11-09T20:12:51.756Z,23.25
2022-11-09T20:15:38.353Z,23.50
2022-11-09T20:18:25.468Z,25.00
2022-11-09T20:21:12.438Z,16.50
2022-11-09T20:23:59.220Z,19.50
2022-11-09T20:26:47.323Z,20.25
2022-11-09T20:29:33.605Z,21.25
2022-11-09T20:32:21.640Z,15.50
2022-11-09T20:35:09.140Z,18.00
2022-11-09T20:37:55.627Z,17.50
2022-11-09T20:40:41.884Z,22.25
2022-11-09T20:43:30.660Z,15.75
2022-11-09T20:46:18.573Z,19.00
2022-11-09T20:49:05.797Z,20.00
2022-11-09T20:51:52.372Z,19.50
2022-11-09T20:54:39.574Z,18.75
2022-11-09T20:57:26.198Z,17.75
2022-11-09T21:00:14.799Z,17.75
2022-11-09T21:03:01.223Z,15.50
2022-11-09T21:05:51.698Z,18.25
2022-11-09T21:08:41.293Z,15.00
2022-11-09T21:11:28.891Z,19.00
2022-11-09T21:14:15.750Z,19.50
2022-11-09T21:17:04.081Z,20.00
2022-11-09T21:19:50.662Z,19.75
2022-11-09T21:22:54.571Z,19.00
2022-11-09T21:25:59.577Z,19.00
2022-11-09T21:29:03.646Z,15.00
2022-11-09T21:31:50.101Z,19.00
2022-11-09T21:34:38.390Z,19.00
2022-11-09T21:37:25.224Z,17.50
2022-11-09T21:40:12.468Z,22.25
2022-11-09T21:42:58.930Z,19.50
2022-11-09T21:45:50.244Z,18.50
2022-11-09T21:48:36.723Z,19.00
2022-11-09T21:51:25.458Z,20.00
2022-11-09T21:54:12.302Z,15.00
2022-11-09T21:56:58.662Z,14.75
2022-11-09T21:59:45.061Z,20.00
2022-11-09T22:02:33.495Z,22.00
2022-11-09T22:05:23.009Z,15.50
2022-11-09T22:08:10.947Z,17.75
2022-11-09T22:11:04.557Z,12.75
2022-11-09T22:14:08.933Z,21.00
2022-11-09T22:16:55.343Z,19.75
2022-11-09T22:19:59.247Z,20.75
2022-11-09T22:22:46.122Z,17.75
2022-11-09T22:25:34.198Z,20.25
2022-11-09T22:28:20.718Z,21.00
2022-11-09T22:31:07.633Z,17.50
2022-11-09T22:33:54.464Z,18.75
2022-11-09T22:36:41.232Z,20.50
2022-11-09T22:39:27.553Z,19.75
2022-11-09T22:42:15.297Z,18.75
2022-11-09T22:45:01.657Z,20.25
2022-11-09T22:47:47.971Z,20.50
2022-11-09T22:50:34.400Z,21.75
2022-11-09T22:53:21.022Z,18.50
2022-11-09T22:56:08.354Z,19.00
2022-11-09T22:58:56.069Z,17.25
2022-11-09T23:01:42.805Z,20.25
2022-11-09T23:04:29.409Z,25.25
2022-11-09T23:07:15.743Z,17.50
2022-11-09T23:10:02.710Z,24.50
2022-11-09T23:12:49.224Z,21.00
2022-11-09T23:15:36.871Z,19.50
2022-11-09T23:18:41.090Z,11.25
2022-11-09T23:21:28.344Z,19.00
2022-11-09T23:24:36.876Z,21.75
2022-11-09T23:27:23.367Z,20.50
2022-11-09T23:30:09.949Z,21.00
2022-11-09T23:32:57.789Z,18.50
2022-11-09T23:35:44.396Z,22.00
2022-11-09T23:38:30.758Z,21.00
2022-11-09T23:41:17.408Z,21.50
2022-11-09T23:44:04.060Z,20.25
2022-11-09T23:46:50.364Z,19.50
2022-11-09T23:49:38.061Z,24.00
2022-11-09T23:52:24.602Z,25.25
2022-11-09T23:55:10.836Z,24.00
2022-11-09T23:57:57.624Z,18.25
